createdAt,value
2022-08-26T00:00:54.743Z,100360.66
2022-08-26T00:03:24.582Z,100369.25
2022-08-26T00:05:53.490Z,100355.59
2022-08-26T00:08:24.377Z,100352.84
2022-08-26T00:10:53.056Z,100360.56
2022-08-26T00:13:22.188Z,100369.81
2022-08-26T00:15:51.456Z,100373.28
2022-08-26T00:18:22.610Z,100346.59
2022-08-26T00:20:51.571Z,100368.22
2022-08-26T00:23:20.583Z,100375.97
2022-08-26T00:25:54.677Z,100375.91
2022-08-26T00:28:27.503Z,100381.31
2022-08-26T00:30:56.122Z,100384.09
2022-08-26T00:33:24.786Z,100380.63
2022-08-26T00:35:53.483Z,100380.72
2022-08-26T00:38:24.991Z,100381.72
2022-08-26T00:40:58.887Z,100385.91
2022-08-26T00:43:28.182Z,100381.50
2022-08-26T00:45:59.955Z,100391.09
2022-08-26T00:48:32.180Z,100361.66
2022-08-26T00:51:04.025Z,100395.47
2022-08-26T00:53:37.849Z,100391.97
2022-08-26T00:56:17.850Z,100377.34
2022-08-26T00:58:48.124Z,100320.84
2022-08-26T01:01:17.154Z,100327.75
2022-08-26T01:03:46.781Z,100387.97
2022-08-26T01:06:18.405Z,100383.75
2022-08-26T01:08:47.066Z,100381.28
2022-08-26T01:11:17.657Z,100378.81
2022-08-26T01:13:47.874Z,100378.09
2022-08-26T01:16:17.274Z,100375.56
2022-08-26T01:18:46.986Z,100378.25
2022-08-26T01:21:19.640Z,100368.53
2022-08-26T01:23:51.490Z,100367.75
2022-08-26T01:26:30.125Z,100372.03
2022-08-26T01:29:01.162Z,100381.63
2022-08-26T01:31:32.634Z,100373.75
2022-08-26T01:34:06.048Z,100375.63
2022-08-26T01:36:34.750Z,100374.03
2022-08-26T01:39:05.824Z,100375.94
2022-08-26T01:41:38.166Z,100367.59
2022-08-26T01:44:09.725Z,100377.06
2022-08-26T01:46:38.717Z,100377.13
2022-08-26T01:49:08.711Z,100373.78
2022-08-26T01:51:39.326Z,100374.53
2022-08-26T01:54:12.011Z,100376.25
2022-08-26T01:56:42.433Z,100378.88
2022-08-26T01:59:12.956Z,100375.47
2022-08-26T02:01:42.593Z,100384.94
2022-08-26T02:04:18.112Z,100344.66
2022-08-26T02:06:46.808Z,100385.19
2022-08-26T02:09:17.128Z,100385.28
2022-08-26T02:11:45.948Z,100383.69
2022-08-26T02:14:17.876Z,100386.47
2022-08-26T02:16:49.110Z,100384.81
2022-08-26T02:19:21.810Z,100391.91
2022-08-26T02:21:54.517Z,100375.72
2022-08-26T02:24:30.397Z,100393.75
2022-08-26T02:26:59.779Z,100376.63
2022-08-26T02:29:33.005Z,100375.66
2022-08-26T02:32:01.530Z,100392.88
2022-08-26T02:34:32.843Z,100358.44
2022-08-26T02:37:05.040Z,100389.47
2022-08-26T02:39:37.040Z,100392.13
2022-08-26T02:42:06.987Z,100381.66
2022-08-26T02:44:35.718Z,100385.81
2022-08-26T02:47:05.345Z,100385.78
2022-08-26T02:49:34.011Z,100381.34
2022-08-26T02:52:02.607Z,100374.47
2022-08-26T02:54:31.967Z,100388.13
2022-08-26T02:57:03.519Z,100389.78
2022-08-26T02:59:36.132Z,100383.59
2022-08-26T03:02:04.891Z,100391.13
2022-08-26T03:04:34.071Z,100385.69
2022-08-26T03:07:03.123Z,100379.63
2022-08-26T03:09:31.800Z,100352.75
2022-08-26T03:12:00.664Z,100376.78
2022-08-26T03:14:30.750Z,100385.13
2022-08-26T03:16:59.562Z,100380.53
2022-08-26T03:19:28.184Z,100384.56
2022-08-26T03:21:58.021Z,100379.16
2022-08-26T03:24:27.532Z,100392.66
2022-08-26T03:26:56.453Z,100392.34
2022-08-26T03:29:44.887Z,100399.84
2022-08-26T03:32:20.910Z,100386.56
2022-08-26T03:34:50.189Z,100399.19
2022-08-26T03:37:18.874Z,100385.34
2022-08-26T03:39:47.591Z,100399.66
2022-08-26T03:42:17.918Z,100403.88
2022-08-26T03:44:51.643Z,100400.16
2022-08-26T03:47:22.067Z,100393.81
2022-08-26T03:49:50.779Z,100394.63
2022-08-26T03:52:20.582Z,100393.56
2022-08-26T03:54:49.380Z,100395.22
2022-08-26T03:57:17.936Z,100386.22
2022-08-26T03:59:47.976Z,100391.97
2022-08-26T04:02:16.991Z,100392.47
2022-08-26T04:04:47.842Z,100386.91
2022-08-26T04:07:16.716Z,100396.88
2022-08-26T04:09:46.268Z,100387.63
2022-08-26T04:12:15.826Z,100403.91
2022-08-26T04:14:44.625Z,100393.72
2022-08-26T04:17:13.548Z,100393.00
2022-08-26T04:19:42.174Z,100397.81
2022-08-26T04:22:12.191Z,100396.53
2022-08-26T04:24:41.145Z,100397.25
2022-08-26T04:27:10.487Z,100400.59
2022-08-26T04:29:40.872Z,100386.56
2022-08-26T04:32:09.896Z,100400.88
2022-08-26T04:34:39.087Z,100411.75
2022-08-26T04:37:08.497Z,100408.53
2022-08-26T04:39:38.713Z,100408.88
2022-08-26T04:42:08.056Z,100411.97
2022-08-26T04:44:38.445Z,100413.25
2022-08-26T04:47:08.294Z,100407.38
2022-08-26T04:49:38.419Z,100403.53
2022-08-26T04:52:07.221Z,100397.84
2022-08-26T04:54:36.399Z,100406.06
2022-08-26T04:57:06.726Z,100403.13
2022-08-26T04:59:39.118Z,100405.19
2022-08-26T05:02:08.654Z,100406.59
2022-08-26T05:04:37.799Z,100387.97
2022-08-26T05:07:07.984Z,100405.31
2022-08-26T05:09:38.795Z,100409.16
2022-08-26T05:12:09.779Z,100407.75
2022-08-26T05:14:38.425Z,100403.69
2022-08-26T05:17:07.131Z,100401.53
2022-08-26T05:19:37.239Z,100409.84
2022-08-26T05:22:13.227Z,100408.47
2022-08-26T05:24:43.370Z,100397.78
2022-08-26T05:27:13.986Z,100411.81
2022-08-26T05:29:42.784Z,100413.09
2022-08-26T05:32:13.044Z,100388.13
2022-08-26T05:34:42.950Z,100419.22
2022-08-26T05:37:13.596Z,100411.97
2022-08-26T05:39:43.534Z,100413.09
2022-08-26T05:42:21.635Z,100406.53
2022-08-26T05:44:55.992Z,100406.19
2022-08-26T05:47:25.212Z,100413.63
2022-08-26T05:49:54.615Z,100421.03
2022-08-26T05:52:24.687Z,100415.44
2022-08-26T05:54:54.797Z,100422.84
2022-08-26T05:57:24.864Z,100417.94
2022-08-26T05:59:53.444Z,100413.13
2022-08-26T06:02:22.015Z,100412.78
2022-08-26T06:04:50.934Z,100413.16
2022-08-26T06:07:40.612Z,100395.69
2022-08-26T06:10:31.438Z,100415.75
2022-08-26T06:13:09.234Z,100408.91
2022-08-26T06:15:45.715Z,100410.22
2022-08-26T06:18:15.828Z,100403.88
2022-08-26T06:20:57.382Z,100414.38
2022-08-26T06:23:45.629Z,100413.78
2022-08-26T06:26:14.636Z,100404.28
2022-08-26T06:28:45.575Z,100405.50
2022-08-26T06:31:14.863Z,100410.25
2022-08-26T06:33:43.892Z,100404.63
2022-08-26T06:36:18.636Z,100415.09
2022-08-26T06:38:48.603Z,100421.53
2022-08-26T06:41:18.471Z,100410.47
2022-08-26T06:43:50.355Z,100393.75
2022-08-26T06:46:21.734Z,100413.72
2022-08-26T06:48:51.039Z,100415.69
2022-08-26T06:51:22.315Z,100410.66
2022-08-26T06:53:53.879Z,100394.69
2022-08-26T06:56:24.599Z,100401.94
2022-08-26T06:58:54.805Z,100417.50
2022-08-26T07:01:27.337Z,100399.19
2022-08-26T07:03:58.610Z,100416.34
2022-08-26T07:06:29.439Z,100411.25
2022-08-26T07:09:04.033Z,100413.34
2022-08-26T07:11:34.010Z,100394.38
2022-08-26T07:14:04.532Z,100403.09
2022-08-26T07:16:33.408Z,100400.09
2022-08-26T07:19:03.481Z,100403.91
2022-08-26T07:21:40.522Z,100392.59
2022-08-26T07:24:09.409Z,100399.69
2022-08-26T07:26:43.059Z,100393.28
2022-08-26T07:29:15.116Z,100403.03
2022-08-26T07:31:43.718Z,100402.97
2022-08-26T07:34:13.765Z,100400.59
2022-08-26T07:36:42.696Z,100408.00
2022-08-26T07:39:11.367Z,100403.72
2022-08-26T07:41:42.892Z,100405.81
2022-08-26T07:44:12.955Z,100396.25
2022-08-26T07:46:41.644Z,100402.91
2022-08-26T07:49:18.009Z,100397.72
2022-08-26T07:51:46.786Z,100369.31
2022-08-26T07:54:16.904Z,100387.91
2022-08-26T07:56:46.305Z,100379.78
2022-08-26T07:59:17.177Z,100384.63
2022-08-26T08:01:46.632Z,100393.28
2022-08-26T08:04:15.516Z,100390.59
2022-08-26T08:06:44.428Z,100390.75
2022-08-26T08:09:13.621Z,100392.94
2022-08-26T08:11:42.313Z,100376.63
2022-08-26T08:14:12.772Z,100395.47
2022-08-26T08:16:45.861Z,100370.69
2022-08-26T08:19:15.690Z,100388.94
2022-08-26T08:21:44.427Z,100388.31
2022-08-26T08:24:13.227Z,100376.50
2022-08-26T08:26:41.921Z,100389.00
2022-08-26T08:29:10.504Z,100387.66
2022-08-26T08:31:56.790Z,100384.50
2022-08-26T08:34:30.199Z,100375.84
2022-08-26T08:36:59.047Z,100383.38
2022-08-26T08:39:28.775Z,100372.28
2022-08-26T08:42:16.231Z,100380.06
2022-08-26T08:44:52.350Z,100380.28
2022-08-26T08:47:29.398Z,100375.16
2022-08-26T08:50:01.492Z,100369.00
2022-08-26T08:52:35.264Z,100371.16
2022-08-26T08:55:05.695Z,100362.16
2022-08-26T08:57:46.904Z,100372.00
2022-08-26T09:00:18.739Z,100339.66
2022-08-26T09:02:54.069Z,100360.19
2022-08-26T09:05:25.628Z,100368.28
2022-08-26T09:07:57.856Z,100370.41
2022-08-26T09:10:32.732Z,100354.16
2022-08-26T09:13:02.762Z,100366.66
2022-08-26T09:15:38.806Z,100354.72
2022-08-26T09:18:13.285Z,100334.66
2022-08-26T09:20:49.259Z,100359.72
2022-08-26T09:23:19.312Z,100352.88
2022-08-26T09:25:50.771Z,100351.91
2022-08-26T09:28:21.188Z,100348.25
2022-08-26T09:31:01.643Z,100349.84
2022-08-26T09:33:35.000Z,100342.09
2022-08-26T09:36:26.339Z,100340.81
2022-08-26T09:38:55.278Z,100353.38
2022-08-26T09:41:27.659Z,100347.03
2022-08-26T09:44:20.938Z,100346.22
2022-08-26T09:46:56.720Z,100344.97
2022-08-26T09:49:32.655Z,100350.34
2022-08-26T09:52:26.829Z,100350.34
2022-08-26T09:55:09.317Z,100342.84
2022-08-26T09:57:47.257Z,100346.94
2022-08-26T10:00:29.130Z,100343.41
2022-08-26T10:02:58.698Z,100341.84
2022-08-26T10:05:33.255Z,100342.28
2022-08-26T10:08:18.259Z,100338.59
2022-08-26T10:10:47.928Z,100340.44
2022-08-26T10:13:29.470Z,100333.13
2022-08-26T10:16:03.396Z,100330.13
2022-08-26T10:18:37.136Z,100337.22
2022-08-26T10:21:10.137Z,100342.41
2022-08-26T10:23:43.750Z,100328.31
2022-08-26T10:26:16.031Z,100331.72
2022-08-26T10:28:48.536Z,100326.78
2022-08-26T10:31:28.027Z,100324.25
2022-08-26T10:34:00.454Z,100325.66
2022-08-26T10:39:46.010Z,100320.94
2022-08-26T10:42:18.937Z,100322.88
2022-08-26T10:44:49.912Z,100315.03
2022-08-26T10:47:20.822Z,100309.94
2022-08-26T10:49:51.239Z,100292.19
2022-08-26T10:52:23.286Z,100306.22
2022-08-26T10:55:03.609Z,100297.19
2022-08-26T10:57:43.951Z,100302.41
2022-08-26T11:00:34.156Z,100303.38
2022-08-26T11:03:21.707Z,100297.03
2022-08-26T11:06:17.811Z,100301.56
2022-08-26T11:08:50.795Z,100304.53
2022-08-26T11:11:49.230Z,100300.56
2022-08-26T11:14:46.084Z,100295.78
2022-08-26T11:17:56.691Z,100293.66
2022-08-26T11:20:45.031Z,100287.56
2022-08-26T11:23:38.907Z,100290.00
2022-08-26T11:26:27.478Z,100282.53
2022-08-26T11:29:12.132Z,100287.47
2022-08-26T11:31:56.323Z,100290.41
2022-08-26T11:34:52.559Z,100260.44
2022-08-26T11:37:22.090Z,100279.69
2022-08-26T11:39:55.486Z,100276.44
2022-08-26T11:42:32.636Z,100279.84
2022-08-26T11:45:05.840Z,100281.38
2022-08-26T11:47:34.556Z,100286.31
2022-08-26T11:50:12.125Z,100274.13
2022-08-26T11:52:40.697Z,100266.22
2022-08-26T11:55:12.179Z,100196.13
2022-08-26T11:57:45.092Z,100265.06
2022-08-26T12:00:22.562Z,100260.81
2022-08-26T12:02:52.652Z,100267.59
2022-08-26T12:05:26.732Z,100262.78
2022-08-26T12:07:58.575Z,100246.63
2022-08-26T12:10:31.207Z,100264.88
2022-08-26T12:13:01.812Z,100271.22
2022-08-26T12:15:32.683Z,100258.41
2022-08-26T12:18:20.539Z,100250.38
2022-08-26T12:20:59.798Z,100251.63
2022-08-26T12:23:38.623Z,100247.53
2022-08-26T12:26:10.519Z,100252.03
2022-08-26T12:28:45.240Z,100248.56
2022-08-26T12:31:26.972Z,100254.66
2022-08-26T12:33:57.213Z,100251.06
2022-08-26T12:36:32.150Z,100252.81
2022-08-26T12:39:09.105Z,100208.13
2022-08-26T12:41:50.617Z,100250.94
2022-08-26T12:44:53.293Z,100222.88
2022-08-26T12:47:32.767Z,100240.91
2022-08-26T12:50:18.608Z,100230.25
2022-08-26T12:52:56.029Z,100234.25
2022-08-26T12:55:27.853Z,100245.97
2022-08-26T12:58:20.066Z,100235.13
2022-08-26T13:00:49.404Z,100230.16
2022-08-26T13:03:43.558Z,100228.81
2022-08-26T13:06:17.970Z,100231.78
2022-08-26T13:08:48.780Z,100225.59
2022-08-26T13:11:20.706Z,100210.66
2022-08-26T13:13:50.609Z,100214.50
2022-08-26T13:16:19.671Z,100232.56
2022-08-26T13:18:51.239Z,100223.56
2022-08-26T13:21:21.414Z,100214.66
2022-08-26T13:23:50.693Z,100221.16
2022-08-26T13:26:19.883Z,100200.69
2022-08-26T13:28:53.263Z,100217.38
2022-08-26T13:31:31.766Z,100214.69
2022-08-26T13:34:02.037Z,100217.50
2022-08-26T13:36:30.881Z,100210.47
2022-08-26T13:38:59.505Z,100207.19
2022-08-26T13:41:29.496Z,100206.50
2022-08-26T13:43:59.398Z,100191.97
2022-08-26T13:46:28.621Z,100211.88
2022-08-26T13:48:57.341Z,100191.25
2022-08-26T13:51:28.370Z,100198.91
2022-08-26T13:53:57.516Z,100200.03
2022-08-26T13:56:27.564Z,100202.16
2022-08-26T13:58:56.491Z,100207.09
2022-08-26T14:01:25.424Z,100202.75
2022-08-26T14:03:54.243Z,100215.66
2022-08-26T14:06:23.376Z,100209.63
2022-08-26T14:08:53.509Z,100205.38
2022-08-26T14:11:23.229Z,100187.16
2022-08-26T14:13:53.978Z,100200.38
2022-08-26T14:16:25.054Z,100210.34
2022-08-26T14:18:54.110Z,100206.63
2022-08-26T14:21:23.028Z,100211.06
2022-08-26T14:23:53.067Z,100209.03
2022-08-26T14:26:28.594Z,100210.69
2022-08-26T14:28:59.082Z,100206.00
2022-08-26T14:31:32.063Z,100212.25
2022-08-26T14:34:03.361Z,100182.66
2022-08-26T14:36:32.754Z,100199.81
2022-08-26T14:39:05.210Z,100211.97
2022-08-26T14:41:34.427Z,100198.50
2022-08-26T14:44:05.121Z,100205.81
2022-08-26T14:46:36.141Z,100209.06
2022-08-26T14:49:08.494Z,100187.97
2022-08-26T14:51:39.111Z,100199.84
2022-08-26T14:54:13.930Z,100203.25
2022-08-26T14:56:46.802Z,100213.69
2022-08-26T14:59:17.630Z,100215.97
2022-08-26T15:01:46.755Z,100202.88
2022-08-26T15:04:15.699Z,100207.00
2022-08-26T15:06:44.379Z,100215.75
2022-08-26T15:09:14.790Z,100212.78
2022-08-26T15:11:43.432Z,100208.88
2022-08-26T15:14:18.932Z,100213.97
2022-08-26T15:16:49.068Z,100213.25
2022-08-26T15:19:18.451Z,100209.00
2022-08-26T15:21:47.739Z,100196.81
2022-08-26T15:24:20.664Z,100222.06
2022-08-26T15:26:49.634Z,100218.94
2022-08-26T15:29:18.261Z,100211.06
2022-08-26T15:31:47.695Z,100219.94
2022-08-26T15:34:17.247Z,100227.59
2022-08-26T15:36:46.585Z,100226.53
2022-08-26T15:39:18.440Z,100223.75
2022-08-26T15:41:47.737Z,100226.84
2022-08-26T15:44:17.507Z,100229.97
2022-08-26T15:46:46.320Z,100216.50
2022-08-26T15:49:18.317Z,100222.97
2022-08-26T15:51:48.291Z,100229.88
2022-08-26T15:54:20.004Z,100207.81
2022-08-26T15:56:51.795Z,100227.59
2022-08-26T15:59:21.087Z,100228.09
2022-08-26T16:01:49.692Z,100220.25
2022-08-26T16:04:18.888Z,100214.78
2022-08-26T16:06:50.449Z,100228.63
2022-08-26T16:09:20.923Z,100224.13
2022-08-26T16:11:49.429Z,100203.47
2022-08-26T16:14:18.104Z,100229.53
2022-08-26T16:16:47.249Z,100229.28
2022-08-26T16:19:15.958Z,100210.00
2022-08-26T16:21:44.793Z,100239.47
2022-08-26T16:24:13.582Z,100234.13
2022-08-26T16:26:44.409Z,100232.03
2022-08-26T16:29:15.040Z,100239.53
2022-08-26T16:31:43.990Z,100245.63
2022-08-26T16:34:12.741Z,100244.63
2022-08-26T16:36:41.651Z,100242.59
2022-08-26T16:39:10.735Z,100237.69
2022-08-26T16:41:39.333Z,100241.88
2022-08-26T16:44:11.624Z,100241.59
2022-08-26T16:46:41.335Z,100245.84
2022-08-26T16:49:10.018Z,100239.91
2022-08-26T16:51:39.662Z,100247.59
2022-08-26T16:54:09.123Z,100253.13
2022-08-26T16:56:38.139Z,100248.47
2022-08-26T16:59:11.139Z,100239.72
2022-08-26T17:01:40.414Z,100245.13
2022-08-26T17:04:09.153Z,100253.44
2022-08-26T17:06:38.340Z,100255.22
2022-08-26T17:09:09.380Z,100255.53
2022-08-26T17:11:37.978Z,100256.81
2022-08-26T17:14:06.724Z,100248.50
2022-08-26T17:16:36.874Z,100256.59
2022-08-26T17:19:06.298Z,100257.84
2022-08-26T17:21:36.359Z,100252.94
2022-08-26T17:24:05.342Z,100242.63
2022-08-26T17:26:34.299Z,100252.94
2022-08-26T17:29:03.097Z,100253.16
2022-08-26T17:31:32.116Z,100229.69
2022-08-26T17:34:02.289Z,100254.63
2022-08-26T17:36:34.022Z,100249.84
2022-08-26T17:39:02.707Z,100254.34
2022-08-26T17:41:31.397Z,100248.78
2022-08-26T17:44:00.048Z,100218.13
2022-08-26T17:46:28.906Z,100255.91
2022-08-26T17:48:57.575Z,100257.06
2022-08-26T17:51:27.614Z,100261.41
2022-08-26T17:53:56.290Z,100260.47
2022-08-26T17:56:27.069Z,100256.03
2022-08-26T17:58:57.048Z,100253.16
2022-08-26T18:01:27.758Z,100253.03
2022-08-26T18:04:00.353Z,100250.50
2022-08-26T18:06:31.671Z,100237.50
2022-08-26T18:09:00.781Z,100229.22
2022-08-26T18:11:29.936Z,100240.50
2022-08-26T18:13:58.775Z,100251.00
2022-08-26T18:16:28.284Z,100250.13
2022-08-26T18:18:56.896Z,100245.16
2022-08-26T18:21:32.033Z,100246.38
2022-08-26T18:24:00.822Z,100232.97
2022-08-26T18:26:31.427Z,100242.34
2022-08-26T18:29:00.319Z,100242.91
2022-08-26T18:31:29.999Z,100205.72
2022-08-26T18:34:00.582Z,100260.53
2022-08-26T18:36:32.844Z,100232.69
2022-08-26T18:39:01.993Z,100263.38
2022-08-26T18:41:32.890Z,100259.00
2022-08-26T18:44:02.837Z,100253.69
2022-08-26T18:46:31.656Z,100267.63
2022-08-26T18:49:00.424Z,100268.59
2022-08-26T18:51:33.139Z,100267.84
2022-08-26T18:54:03.332Z,100237.56
2022-08-26T18:56:33.677Z,100239.75
2022-08-26T18:59:02.739Z,100261.75
2022-08-26T19:01:32.315Z,100278.44
2022-08-26T19:04:02.442Z,100277.78
2022-08-26T19:06:35.583Z,100273.81
2022-08-26T19:09:05.682Z,100274.44
2022-08-26T19:11:37.401Z,100280.34
2022-08-26T19:14:13.234Z,100279.94
2022-08-26T19:16:42.698Z,100266.97
2022-08-26T19:19:12.066Z,100274.63
2022-08-26T19:21:42.651Z,100292.34
2022-08-26T19:24:15.648Z,100287.69
2022-08-26T19:26:47.918Z,100255.94
2022-08-26T19:31:47.993Z,100289.66
2022-08-26T19:34:18.287Z,100290.19
2022-08-26T19:36:54.272Z,100227.19
2022-08-26T19:39:22.986Z,100293.38
2022-08-26T19:41:52.759Z,100277.25
2022-08-26T19:44:40.651Z,100303.53
2022-08-26T19:47:11.733Z,100306.66
2022-08-26T19:49:40.508Z,100308.22
2022-08-26T19:52:11.235Z,100311.97
2022-08-26T19:54:40.121Z,100311.63
2022-08-26T19:57:08.777Z,100298.25
2022-08-26T19:59:37.536Z,100307.13
2022-08-26T20:02:10.576Z,100309.28
2022-08-26T20:04:39.678Z,100317.66
2022-08-26T20:07:09.203Z,100311.84
2022-08-26T20:09:39.438Z,100297.91
2022-08-26T20:12:09.029Z,100307.28
2022-08-26T20:14:37.947Z,100303.66
2022-08-26T20:17:07.270Z,100324.84
2022-08-26T20:19:53.669Z,100327.22
2022-08-26T20:22:22.637Z,100328.78
2022-08-26T20:24:53.199Z,100326.66
2022-08-26T20:27:27.653Z,100327.16
2022-08-26T20:30:08.632Z,100325.09
2022-08-26T20:32:37.865Z,100328.97
2022-08-26T20:35:08.155Z,100328.38
2022-08-26T20:37:36.825Z,100319.78
2022-08-26T20:40:09.522Z,100320.81
2022-08-26T20:42:38.820Z,100278.91
2022-08-26T20:45:08.857Z,100325.38
2022-08-26T20:47:40.123Z,100321.91
2022-08-26T20:50:14.276Z,100319.47
2022-08-26T20:52:42.591Z,100334.59
2022-08-26T20:55:13.899Z,100325.38
2022-08-26T20:57:43.429Z,100328.91
2022-08-26T21:00:18.135Z,100321.50
2022-08-26T21:02:48.748Z,100333.59
2022-08-26T21:05:17.403Z,100325.31
2022-08-26T21:07:46.205Z,100326.94
2022-08-26T21:10:16.772Z,100333.22
2022-08-26T21:12:45.447Z,100325.34
2022-08-26T21:15:15.667Z,100305.09
2022-08-26T21:17:45.540Z,100335.47
2022-08-26T21:20:15.929Z,100346.28
2022-08-26T21:22:45.172Z,100333.47
2022-08-26T21:25:14.110Z,100337.16
2022-08-26T21:27:44.159Z,100339.25
2022-08-26T21:30:18.171Z,100335.25
2022-08-26T21:32:46.882Z,100332.97
2022-08-26T21:35:15.728Z,100338.25
2022-08-26T21:37:44.431Z,100336.66
2022-08-26T21:40:13.696Z,100341.22
2022-08-26T21:42:43.897Z,100347.47
2022-08-26T21:45:13.246Z,100329.41
2022-08-26T21:47:41.982Z,100346.66
2022-08-26T21:50:11.198Z,100344.03
2022-08-26T21:52:40.073Z,100342.22
2022-08-26T21:55:11.726Z,100345.78
2022-08-26T21:57:41.027Z,100347.59
2022-08-26T22:00:15.788Z,100315.75
2022-08-26T22:02:44.638Z,100338.47
2022-08-26T22:05:13.614Z,100344.72
2022-08-26T22:07:42.305Z,100344.94
2022-08-26T22:10:11.367Z,100344.50
2022-08-26T22:12:40.016Z,100346.50
2022-08-26T22:15:12.250Z,100351.66
2022-08-26T22:17:41.092Z,100330.94
2022-08-26T22:20:16.588Z,100339.94
2022-08-26T22:22:45.879Z,100351.97
2022-08-26T22:25:14.923Z,100349.63
2022-08-26T22:27:43.750Z,100352.53
2022-08-26T22:30:14.691Z,100353.59
2022-08-26T22:32:44.118Z,100345.84
2022-08-26T22:35:29.302Z,100348.63
2022-08-26T22:37:58.675Z,100348.84
2022-08-26T22:40:27.490Z,100342.91
2022-08-26T22:42:58.079Z,100355.63
2022-08-26T22:45:31.446Z,100350.28
2022-08-26T22:48:00.912Z,100346.06
2022-08-26T22:50:29.719Z,100341.00
2022-08-26T22:52:58.487Z,100345.63
2022-08-26T22:55:27.087Z,100331.72
2022-08-26T22:57:55.738Z,100332.63
2022-08-26T23:00:32.198Z,100349.09
2022-08-26T23:03:03.126Z,100335.84
2022-08-26T23:05:31.932Z,100335.91
2022-08-26T23:08:00.789Z,100310.34
2022-08-26T23:10:30.602Z,100340.34
2022-08-26T23:12:59.203Z,100339.75
2022-08-26T23:15:28.025Z,100332.63
2022-08-26T23:17:58.539Z,100314.00
2022-08-26T23:20:29.598Z,100332.44
2022-08-26T23:22:58.779Z,100318.53
2022-08-26T23:25:29.691Z,100337.28
2022-08-26T23:27:59.544Z,100306.19
2022-08-26T23:30:29.855Z,100334.53
2022-08-26T23:32:58.520Z,100336.25
2022-08-26T23:35:28.115Z,100345.19
2022-08-26T23:37:58.334Z,100336.56
2022-08-26T23:40:30.257Z,100338.63
2022-08-26T23:42:59.594Z,100336.84
2022-08-26T23:45:29.101Z,100333.81
2022-08-26T23:47:57.775Z,100342.66
2022-08-26T23:50:45.270Z,100345.50
2022-08-26T23:53:19.549Z,100341.34
2022-08-26T23:55:48.930Z,100346.03
2022-08-26T23:58:17.933Z,100342.19
